Time;durP1;ratioP1;P1;durP2;ratioP2;P2;SDS_P1;SDS_P2;PMS_P1;PMS_P2;Temp;Humidity;BMP_temperature;BMP_pressure;BME280_temperature;BME280_humidity;BME280_pressure;Samples;Min_cycle;Max_cycle;Signal;HPM_P1;HPM_P2
2021/11/25 00:00:52;;;;;;;17.40;10.00;;;;;;;;;;5092536;28;20031;-71
2021/11/25 00:03:18;;;;;;;21.00;10.50;;;;;;;;;;5092261;28;20110;-68
2021/11/25 00:05:44;;;;;;;16.75;9.70;;;;;;;;;;5111635;28;20555;-65
2021/11/25 00:08:10;;;;;;;22.15;10.85;;;;;;;;;;5112510;28;20069;-70
2021/11/25 00:10:37;;;;;;;15.23;8.95;;;;;;;;;;5112833;28;20080;-61
2021/11/25 00:13:04;;;;;;;17.20;10.13;;;;;;;;;;5112345;28;20041;-70
2021/11/25 00:15:30;;;;;;;17.40;9.77;;;;;;;;;;5112693;28;20481;-64
2021/11/25 00:17:56;;;;;;;15.30;9.80;;;;;;;;;;5112722;28;20038;-65
2021/11/25 00:20:22;;;;;;;18.15;10.48;;;;;;;;;;5112195;28;20032;-70
2021/11/25 00:22:48;;;;;;;23.13;9.52;;;;;;;;;;5107682;28;20035;-63
2021/11/25 00:25:14;;;;;;;15.60;10.45;;;;;;;;;;5073763;28;20028;-65
2021/11/25 00:27:41;;;;;;;15.07;10.18;;;;;;;;;;5091655;28;20364;-71
2021/11/25 00:30:08;;;;;;;23.13;9.45;;;;;;;;;;5091896;28;20024;-71
2021/11/25 00:32:35;;;;;;;24.60;10.00;;;;;;;;;;5073573;28;20031;-64
2021/11/25 00:35:01;;;;;;;17.70;10.52;;;;;;;;;;5091747;28;20024;-65
2021/11/25 00:37:27;;;;;;;17.77;9.68;;;;;;;;;;5091253;28;20055;-66
2021/11/25 00:39:53;;;;;;;16.98;10.95;;;;;;;;;;5111749;28;20023;-65
2021/11/25 00:42:20;;;;;;;18.30;9.52;;;;;;;;;;5093339;28;20132;-63
2021/11/25 00:44:46;;;;;;;19.65;10.68;;;;;;;;;;5111771;28;20031;-70
2021/11/25 00:47:12;;;;;;;18.98;10.43;;;;;;;;;;5111936;28;20077;-65
2021/11/25 00:49:38;;;;;;;17.27;9.80;;;;;;;;;;5093468;28;20118;-67
2021/11/25 00:52:04;;;;;;;17.15;10.93;;;;;;;;;;5111758;28;20129;-63
2021/11/25 00:54:30;;;;;;;14.98;10.27;;;;;;;;;;5110922;28;20049;-65
2021/11/25 00:56:56;;;;;;;17.50;10.15;;;;;;;;;;5111767;28;20028;-64
2021/11/25 00:59:22;;;;;;;16.13;9.77;;;;;;;;;;5111821;28;20509;-79
2021/11/25 01:01:48;;;;;;;19.40;10.93;;;;;;;;;;5110870;28;20420;-71
2021/11/25 01:04:14;;;;;;;19.27;10.57;;;;;;;;;;5091868;28;20103;-72
2021/11/25 01:06:41;;;;;;;20.75;10.68;;;;;;;;;;5091610;28;20069;-70
2021/11/25 01:09:08;;;;;;;18.52;11.00;;;;;;;;;;5091760;28;20036;-69
2021/11/25 01:11:34;;;;;;;17.80;10.38;;;;;;;;;;5091409;28;20044;-71
2021/11/25 01:14:00;;;;;;;17.20;10.77;;;;;;;;;;5091257;28;20028;-73
2021/11/25 01:16:26;;;;;;;16.85;10.27;;;;;;;;;;5091402;28;20024;-73
2021/11/25 01:18:52;;;;;;;16.63;10.60;;;;;;;;;;5091455;28;20020;-74
2021/11/25 01:21:18;;;;;;;16.77;10.50;;;;;;;;;;5091547;28;20246;-71
2021/11/25 01:23:44;;;;;;;17.85;10.63;;;;;;;;;;5073366;28;20016;-69
2021/11/25 01:26:10;;;;;;;16.65;10.63;;;;;;;;;;5091422;28;20035;-73
2021/11/25 01:28:36;;;;;;;15.68;10.18;;;;;;;;;;5091229;28;20032;-73
2021/11/25 01:31:03;;;;;;;19.70;11.35;;;;;;;;;;5091344;28;20027;-70
2021/11/25 01:33:30;;;;;;;17.92;10.88;;;;;;;;;;5091435;28;20099;-67
2021/11/25 01:35:57;;;;;;;17.10;10.27;;;;;;;;;;5091426;28;20407;-73
2021/11/25 01:38:23;;;;;;;16.92;11.10;;;;;;;;;;5091485;28;20020;-72
2021/11/25 01:40:50;;;;;;;16.50;10.77;;;;;;;;;;5091567;28;20020;-69
2021/11/25 01:43:20;;;;;;;16.25;9.98;;;;;;;;;;5091419;28;20523;-74
2021/11/25 01:45:48;;;;;;;18.65;11.35;;;;;;;;;;5091525;28;20024;-68
2021/11/25 01:48:14;;;;;;;17.65;10.85;;;;;;;;;;5091047;28;20024;-69
2021/11/25 01:50:40;;;;;;;16.90;10.70;;;;;;;;;;5076403;28;20535;-73
2021/11/25 01:53:06;;;;;;;17.85;11.10;;;;;;;;;;5076855;28;20070;-72
2021/11/25 01:55:33;;;;;;;15.48;10.60;;;;;;;;;;5094913;28;20104;-71
2021/11/25 01:57:59;;;;;;;17.55;10.98;;;;;;;;;;5094975;28;20447;-72
2021/11/25 02:00:30;;;;;;;16.88;11.32;;;;;;;;;;5094761;28;20020;-70
2021/11/25 02:02:57;;;;;;;16.40;11.10;;;;;;;;;;5094699;28;20012;-70
2021/11/25 02:05:24;;;;;;;18.10;11.75;;;;;;;;;;5076512;28;20471;-63
2021/11/25 02:07:50;;;;;;;17.08;10.98;;;;;;;;;;5094964;28;20111;-72
2021/11/25 02:10:16;;;;;;;17.52;11.05;;;;;;;;;;5076877;28;20021;-70
2021/11/25 02:12:42;;;;;;;18.73;10.38;;;;;;;;;;5094950;28;20064;-72
2021/11/25 02:15:09;;;;;;;17.00;10.80;;;;;;;;;;5094997;28;20048;-70
2021/11/25 02:17:36;;;;;;;16.90;11.73;;;;;;;;;;5094550;28;20194;-72
2021/11/25 02:20:03;;;;;;;16.45;10.98;;;;;;;;;;5094401;28;20103;-71
2021/11/25 02:22:29;;;;;;;17.33;11.13;;;;;;;;;;5094552;28;20161;-70
2021/11/25 02:24:55;;;;;;;18.80;11.10;;;;;;;;;;5094850;28;20035;-64
2021/11/25 02:27:22;;;;;;;17.27;11.02;;;;;;;;;;5094674;28;20390;-68
2021/11/25 02:29:49;;;;;;;18.25;11.40;;;;;;;;;;5094332;28;20020;-72
2021/11/25 02:32:27;;;;;;;22.35;11.52;;;;;;;;;;5094263;28;20031;-73
2021/11/25 02:34:54;;;;;;;26.42;11.45;;;;;;;;;;5094578;28;20084;-72
2021/11/25 02:37:20;;;;;;;21.05;10.63;;;;;;;;;;5094570;28;20031;-67
2021/11/25 02:39:46;;;;;;;18.70;11.77;;;;;;;;;;5094349;28;20028;-73
2021/11/25 02:42:12;;;;;;;21.30;11.30;;;;;;;;;;5094173;28;20043;-69
2021/11/25 02:44:39;;;;;;;21.60;10.95;;;;;;;;;;5094465;28;20044;-69
2021/11/25 02:47:05;;;;;;;19.02;11.77;;;;;;;;;;5094090;28;20648;-72
2021/11/25 02:49:31;;;;;;;16.88;11.20;;;;;;;;;;5094312;28;20073;-73
2021/11/25 02:51:57;;;;;;;22.45;11.80;;;;;;;;;;5093953;28;20051;-72
2021/11/25 02:54:23;;;;;;;17.25;11.43;;;;;;;;;;5094189;28;20426;-73
2021/11/25 02:56:49;;;;;;;18.20;11.50;;;;;;;;;;5094272;28;20063;-64
2021/11/25 02:59:15;;;;;;;19.73;11.85;;;;;;;;;;5094224;28;20024;-73
2021/11/25 03:01:41;;;;;;;16.92;11.18;;;;;;;;;;5093278;28;20028;-71
2021/11/25 03:04:08;;;;;;;21.48;12.38;;;;;;;;;;5094507;28;20020;-73
2021/11/25 03:06:35;;;;;;;16.63;11.05;;;;;;;;;;5114088;28;20024;-73
2021/11/25 03:09:01;;;;;;;18.55;11.73;;;;;;;;;;5114040;28;20110;-73
2021/11/25 03:11:28;;;;;;;16.63;11.30;;;;;;;;;;5114160;28;20034;-72
2021/11/25 03:13:56;;;;;;;16.00;11.65;;;;;;;;;;5114259;28;20084;-71
2021/11/25 03:16:23;;;;;;;15.90;11.18;;;;;;;;;;5096075;28;20340;-72
2021/11/25 03:18:49;;;;;;;18.58;12.63;;;;;;;;;;5114115;28;20047;-66
2021/11/25 03:21:16;;;;;;;18.60;11.80;;;;;;;;;;5113957;28;20051;-68
2021/11/25 03:23:42;;;;;;;20.15;12.02;;;;;;;;;;5113887;28;20107;-72
2021/11/25 03:26:10;;;;;;;21.88;12.68;;;;;;;;;;5114066;28;20474;-71
2021/11/25 03:28:42;;;;;;;19.80;11.57;;;;;;;;;;5113769;28;20089;-70
2021/11/25 03:31:08;;;;;;;18.45;11.77;;;;;;;;;;5113238;28;20099;-69
2021/11/25 03:33:35;;;;;;;19.65;12.70;;;;;;;;;;5113239;28;20077;-64
2021/11/25 03:36:01;;;;;;;19.08;12.35;;;;;;;;;;5113285;28;20072;-73
2021/11/25 03:38:28;;;;;;;16.70;11.27;;;;;;;;;;5113236;28;20382;-72
2021/11/25 03:40:54;;;;;;;19.60;11.68;;;;;;;;;;5113187;28;20026;-69
2021/11/25 03:43:21;;;;;;;17.58;11.98;;;;;;;;;;5112679;28;20127;-72
2021/11/25 03:45:47;;;;;;;19.08;12.63;;;;;;;;;;5094807;28;20058;-72
2021/11/25 03:48:14;;;;;;;17.38;11.70;;;;;;;;;;5112883;28;20043;-65
2021/11/25 03:50:40;;;;;;;19.23;13.18;;;;;;;;;;5094645;28;20064;-68
2021/11/25 03:53:07;;;;;;;21.63;13.73;;;;;;;;;;5113032;28;20138;-70
2021/11/25 03:55:34;;;;;;;20.55;13.30;;;;;;;;;;5113112;28;20024;-67
2021/11/25 03:58:00;;;;;;;23.42;12.95;;;;;;;;;;5113075;28;20027;-71
2021/11/25 04:00:27;;;;;;;19.40;13.57;;;;;;;;;;5095104;28;20557;-73
2021/11/25 04:02:53;;;;;;;22.27;13.82;;;;;;;;;;5114085;28;20027;-70
2021/11/25 04:05:19;;;;;;;21.73;13.43;;;;;;;;;;5094429;28;20383;-66
2021/11/25 04:07:46;;;;;;;17.75;12.75;;;;;;;;;;5094102;28;20034;-72
2021/11/25 04:10:12;;;;;;;19.40;12.95;;;;;;;;;;5112766;28;20027;-67
2021/11/25 04:12:38;;;;;;;23.65;13.75;;;;;;;;;;5112622;28;20065;-70
2021/11/25 04:15:05;;;;;;;46.22;14.25;;;;;;;;;;5112946;28;20080;-74
2021/11/25 04:17:31;;;;;;;21.65;13.75;;;;;;;;;;5112598;28;20043;-64
2021/11/25 04:19:58;;;;;;;19.38;12.95;;;;;;;;;;5112541;28;20020;-73
2021/11/25 04:22:24;;;;;;;23.38;13.63;;;;;;;;;;5112537;28;20047;-62
2021/11/25 04:24:51;;;;;;;21.23;14.00;;;;;;;;;;5112468;28;20035;-62
2021/11/25 04:27:17;;;;;;;18.48;12.82;;;;;;;;;;5112297;28;20104;-69
2021/11/25 04:29:49;;;;;;;22.02;14.23;;;;;;;;;;5112454;28;20486;-65
2021/11/25 04:37:44;;;;;;;24.25;13.98;;;;;;;;;;5091816;28;20054;-71
2021/11/25 04:40:11;;;;;;;19.67;13.60;;;;;;;;;;5091688;28;20027;-67
2021/11/25 04:42:37;;;;;;;18.63;13.07;;;;;;;;;;5091410;28;20498;-68
2021/11/25 04:45:04;;;;;;;26.05;13.95;;;;;;;;;;5091763;28;20461;-67
2021/11/25 04:47:30;;;;;;;18.95;13.57;;;;;;;;;;5091729;28;20438;-69
2021/11/25 04:49:56;;;;;;;19.77;12.88;;;;;;;;;;5091853;28;20024;-69
2021/11/25 04:52:22;;;;;;;18.90;13.77;;;;;;;;;;5091830;28;20042;-66
2021/11/25 04:54:49;;;;;;;20.48;13.35;;;;;;;;;;5091405;28;20032;-64
2021/11/25 04:57:15;;;;;;;19.48;13.27;;;;;;;;;;5091378;28;20020;-64
2021/11/25 04:59:41;;;;;;;20.95;13.80;;;;;;;;;;5091418;28;20020;-70
2021/11/25 05:02:07;;;;;;;20.65;13.23;;;;;;;;;;5090305;28;20103;-64
2021/11/25 05:04:33;;;;;;;19.77;13.60;;;;;;;;;;5093560;28;20477;-72
2021/11/25 05:06:59;;;;;;;23.40;13.82;;;;;;;;;;5111887;28;20107;-73
2021/11/25 05:09:25;;;;;;;17.02;12.75;;;;;;;;;;5112308;28;20020;-73
2021/11/25 05:11:51;;;;;;;20.73;13.27;;;;;;;;;;5093692;28;20437;-72
2021/11/25 05:14:17;;;;;;;22.10;13.80;;;;;;;;;;5111580;28;20102;-62
2021/11/25 05:16:44;;;;;;;19.73;13.18;;;;;;;;;;5111642;28;20026;-72
2021/11/25 05:19:13;;;;;;;21.85;13.45;;;;;;;;;;5112041;28;20072;-71
2021/11/25 05:21:40;;;;;;;19.20;13.73;;;;;;;;;;5112241;28;20089;-66
2021/11/25 05:24:06;;;;;;;19.90;13.50;;;;;;;;;;5113577;28;20049;-72
2021/11/25 05:26:32;;;;;;;20.70;13.27;;;;;;;;;;5116250;28;20044;-67
2021/11/25 05:28:58;;;;;;;21.65;14.88;;;;;;;;;;5097664;28;20063;-71
2021/11/25 05:31:24;;;;;;;19.92;13.80;;;;;;;;;;5097358;28;20008;-73
2021/11/25 05:33:50;;;;;;;21.90;13.85;;;;;;;;;;5115785;28;20020;-64
2021/11/25 05:36:16;;;;;;;18.80;13.27;;;;;;;;;;5115667;28;20087;-72
2021/11/25 05:38:42;;;;;;;22.73;14.63;;;;;;;;;;5115369;28;20020;-73
2021/11/25 05:41:08;;;;;;;19.83;13.90;;;;;;;;;;5115488;28;20470;-70
2021/11/25 05:43:34;;;;;;;21.40;14.05;;;;;;;;;;5115472;28;20052;-70
2021/11/25 05:46:00;;;;;;;21.45;13.02;;;;;;;;;;5097159;28;20016;-64
2021/11/25 05:48:27;;;;;;;19.02;13.20;;;;;;;;;;5115325;28;20039;-76
2021/11/25 05:50:54;;;;;;;20.08;13.20;;;;;;;;;;5115532;28;20012;-67
2021/11/25 05:53:20;;;;;;;19.00;13.27;;;;;;;;;;5115474;28;20028;-63
2021/11/25 05:55:49;;;;;;;19.75;12.75;;;;;;;;;;5115226;28;20472;-63
2021/11/25 05:58:15;;;;;;;19.23;13.57;;;;;;;;;;5115310;28;20051;-70
2021/11/25 06:00:42;;;;;;;21.25;13.45;;;;;;;;;;5114915;28;20023;-72
2021/11/25 06:03:08;;;;;;;17.90;12.73;;;;;;;;;;5115153;28;20054;-71
2021/11/25 06:05:34;;;;;;;19.60;13.07;;;;;;;;;;5115075;28;20019;-69
2021/11/25 06:08:02;;;;;;;19.55;13.18;;;;;;;;;;5114957;28;20032;-68
2021/11/25 06:10:29;;;;;;;17.85;12.48;;;;;;;;;;5114983;28;20021;-74
2021/11/25 06:12:55;;;;;;;17.42;12.50;;;;;;;;;;5114971;28;20030;-68
2021/11/25 06:15:22;;;;;;;18.83;12.75;;;;;;;;;;5114902;28;20058;-73
2021/11/25 06:17:48;;;;;;;16.98;12.07;;;;;;;;;;5114713;28;20027;-65
2021/11/25 06:20:15;;;;;;;18.50;12.50;;;;;;;;;;5114730;28;20112;-66
2021/11/25 06:22:42;;;;;;;20.48;13.00;;;;;;;;;;5114699;28;20095;-74
2021/11/25 06:25:08;;;;;;;18.63;12.20;;;;;;;;;;5114657;28;20478;-72
2021/11/25 06:27:34;;;;;;;18.92;11.98;;;;;;;;;;5114520;28;20070;-66
2021/11/25 06:30:01;;;;;;;16.35;11.48;;;;;;;;;;5114596;28;20020;-73
2021/11/25 06:32:27;;;;;;;18.42;12.25;;;;;;;;;;5098037;28;20024;-72
2021/11/25 06:34:53;;;;;;;20.42;12.57;;;;;;;;;;5093612;28;20100;-73
2021/11/25 06:37:19;;;;;;;17.60;12.23;;;;;;;;;;5092877;28;20027;-73
2021/11/25 06:39:45;;;;;;;21.27;13.52;;;;;;;;;;5093938;28;20093;-73
2021/11/25 06:42:11;;;;;;;17.15;11.65;;;;;;;;;;5093818;28;20040;-72
2021/11/25 06:44:37;;;;;;;18.40;11.80;;;;;;;;;;5093728;28;20034;-71
2021/11/25 06:47:03;;;;;;;19.42;12.48;;;;;;;;;;5093682;28;20020;-65
2021/11/25 06:49:29;;;;;;;19.83;12.35;;;;;;;;;;5075736;28;20483;-65
2021/11/25 06:51:55;;;;;;;19.15;12.68;;;;;;;;;;5093933;28;20069;-72
2021/11/25 06:54:22;;;;;;;18.23;12.40;;;;;;;;;;5094063;28;20033;-74
2021/11/25 06:56:48;;;;;;;16.63;11.52;;;;;;;;;;5093638;28;20117;-72
2021/11/25 06:59:15;;;;;;;18.30;11.65;;;;;;;;;;5093534;28;20082;-76
2021/11/25 07:01:41;;;;;;;17.98;11.13;;;;;;;;;;5093428;28;20016;-72
2021/11/25 07:04:07;;;;;;;18.70;9.95;;;;;;;;;;5089716;28;20378;-74
2021/11/25 07:06:34;;;;;;;23.40;10.43;;;;;;;;;;5113903;28;20031;-73
2021/11/25 07:09:00;;;;;;;16.10;9.95;;;;;;;;;;5113878;28;20490;-70
2021/11/25 07:11:28;;;;;;;18.02;9.38;;;;;;;;;;5113677;28;20072;-73
2021/11/25 07:13:54;;;;;;;14.10;8.88;;;;;;;;;;5113604;28;20056;-73
2021/11/25 07:16:20;;;;;;;17.35;10.18;;;;;;;;;;5113467;28;20023;-74
2021/11/25 07:18:46;;;;;;;18.67;10.05;;;;;;;;;;5113246;28;20106;-74
2021/11/25 07:21:12;;;;;;;18.40;10.02;;;;;;;;;;5113354;28;20027;-62
2021/11/25 07:23:38;;;;;;;16.20;9.80;;;;;;;;;;5095201;28;20111;-62
2021/11/25 07:26:07;;;;;;;14.48;9.38;;;;;;;;;;5095212;28;20494;-71
2021/11/25 07:28:33;;;;;;;15.60;9.93;;;;;;;;;;5113186;28;20059;-71
2021/11/25 07:30:59;;;;;;;18.17;10.82;;;;;;;;;;5113058;28;20011;-72
2021/11/25 07:33:25;;;;;;;15.85;9.82;;;;;;;;;;5113100;28;20442;-66
2021/11/25 07:35:51;;;;;;;13.70;9.40;;;;;;;;;;5113105;28;20026;-69
2021/11/25 07:38:17;;;;;;;15.63;10.52;;;;;;;;;;5113076;28;20051;-69
2021/11/25 07:40:48;;;;;;;13.25;9.45;;;;;;;;;;5112916;28;20489;-70
2021/11/25 07:43:14;;;;;;;15.20;9.57;;;;;;;;;;5112866;28;20626;-61
2021/11/25 07:45:40;;;;;;;14.18;9.45;;;;;;;;;;5113050;28;20043;-67
2021/11/25 07:48:06;;;;;;;12.75;8.55;;;;;;;;;;5112399;28;20084;-65
2021/11/25 07:50:32;;;;;;;14.20;9.93;;;;;;;;;;5112646;28;20023;-65
2021/11/25 07:52:59;;;;;;;15.65;10.45;;;;;;;;;;5094557;28;20027;-67
2021/11/25 07:55:25;;;;;;;15.65;8.90;;;;;;;;;;5112558;28;20024;-63
2021/11/25 07:57:51;;;;;;;84.90;11.60;;;;;;;;;;5098672;28;20454;-66
2021/11/25 08:00:21;;;;;;;21.88;9.93;;;;;;;;;;5075357;28;20085;-65
2021/11/25 08:02:47;;;;;;;21.02;10.25;;;;;;;;;;5091945;28;20020;-69
2021/11/25 08:05:13;;;;;;;23.02;11.05;;;;;;;;;;5092063;28;20502;-73
2021/11/25 08:07:40;;;;;;;15.05;9.68;;;;;;;;;;5091711;28;20040;-72
2021/11/25 08:10:07;;;;;;;14.90;9.30;;;;;;;;;;5091643;28;20082;-73
2021/11/25 08:12:33;;;;;;;14.70;8.90;;;;;;;;;;5091767;28;20107;-73
2021/11/25 08:14:59;;;;;;;15.70;8.85;;;;;;;;;;5077164;28;20019;-73
2021/11/25 08:17:26;;;;;;;17.40;8.93;;;;;;;;;;5111271;28;20019;-71
2021/11/25 08:19:52;;;;;;;14.35;9.10;;;;;;;;;;5111948;28;20047;-68
2021/11/25 08:22:18;;;;;;;17.60;9.65;;;;;;;;;;5112162;28;20023;-68
2021/11/25 08:24:44;;;;;;;14.43;8.85;;;;;;;;;;5111997;28;20026;-72
2021/11/25 08:27:10;;;;;;;13.88;8.93;;;;;;;;;;5111898;28;20509;-72
2021/11/25 08:29:37;;;;;;;16.05;9.45;;;;;;;;;;5093576;28;20051;-63
2021/11/25 08:32:03;;;;;;;18.67;9.55;;;;;;;;;;5098833;28;20066;-64
2021/11/25 08:34:30;;;;;;;14.15;9.68;;;;;;;;;;5100387;28;20114;-67
2021/11/25 08:36:56;;;;;;;16.33;10.65;;;;;;;;;;5111853;28;20024;-73
2021/11/25 08:39:22;;;;;;;15.25;9.55;;;;;;;;;;5111919;28;20044;-72
2021/11/25 08:41:48;;;;;;;17.17;9.95;;;;;;;;;;5111604;28;20658;-72
2021/11/25 08:44:14;;;;;;;18.25;9.82;;;;;;;;;;5111850;28;20088;-73
2021/11/25 08:46:40;;;;;;;14.00;8.82;;;;;;;;;;5111607;28;20023;-68
2021/11/25 08:49:06;;;;;;;13.65;8.80;;;;;;;;;;5093305;28;20031;-72
2021/11/25 08:51:32;;;;;;;16.38;8.82;;;;;;;;;;5106546;28;20070;-72
2021/11/25 08:54:01;;;;;;;14.68;8.10;;;;;;;;;;5091224;28;20063;-64
2021/11/25 08:56:27;;;;;;;14.10;9.00;;;;;;;;;;5073230;28;20024;-71
2021/11/25 08:58:53;;;;;;;14.07;8.43;;;;;;;;;;5090391;28;20099;-73
2021/11/25 09:01:19;;;;;;;13.68;8.60;;;;;;;;;;5091156;28;20396;-71
2021/11/25 09:03:46;;;;;;;15.15;8.98;;;;;;;;;;5091069;28;20031;-71
2021/11/25 09:06:12;;;;;;;16.45;8.82;;;;;;;;;;5091197;28;20039;-63
2021/11/25 09:08:38;;;;;;;15.77;9.63;;;;;;;;;;5091567;28;20028;-71
2021/11/25 09:11:04;;;;;;;13.32;8.77;;;;;;;;;;5090816;28;20054;-65
2021/11/25 09:13:30;;;;;;;12.90;8.70;;;;;;;;;;5091107;28;20103;-70
2021/11/25 09:15:57;;;;;;;13.23;8.68;;;;;;;;;;5090656;28;20019;-72
2021/11/25 09:18:24;;;;;;;15.73;9.27;;;;;;;;;;5090653;28;20052;-70
2021/11/25 09:20:50;;;;;;;15.98;9.07;;;;;;;;;;5090473;28;20357;-71
2021/11/25 09:23:17;;;;;;;13.50;9.00;;;;;;;;;;5090801;28;20020;-73
2021/11/25 09:25:44;;;;;;;13.52;8.85;;;;;;;;;;5091415;28;20012;-73
2021/11/25 09:28:30;;;;;;;13.60;8.55;;;;;;;;;;5090746;28;20038;-69
2021/11/25 09:30:57;;;;;;;12.50;8.15;;;;;;;;;;5093831;28;20030;-70
2021/11/25 09:33:23;;;;;;;12.70;8.68;;;;;;;;;;5111295;28;20024;-70
2021/11/25 09:35:50;;;;;;;18.98;9.10;;;;;;;;;;5111472;28;20027;-72
2021/11/25 09:38:16;;;;;;;14.82;8.95;;;;;;;;;;5111257;28;20020;-71
2021/11/25 09:40:44;;;;;;;16.02;8.50;;;;;;;;;;5111320;28;20057;-69
2021/11/25 09:43:11;;;;;;;13.60;8.63;;;;;;;;;;5081483;28;20051;-71
2021/11/25 09:45:38;;;;;;;14.10;9.02;;;;;;;;;;5091092;28;20044;-71
2021/11/25 09:48:06;;;;;;;14.40;9.00;;;;;;;;;;5090944;28;20036;-72
2021/11/25 09:50:33;;;;;;;13.07;8.55;;;;;;;;;;5091035;28;20471;-72
2021/11/25 09:53:01;;;;;;;13.43;8.55;;;;;;;;;;5090999;28;20051;-72
2021/11/25 09:55:28;;;;;;;15.10;9.27;;;;;;;;;;5091017;28;20023;-72
2021/11/25 09:57:54;;;;;;;17.00;8.80;;;;;;;;;;5090872;28;20364;-71
2021/11/25 10:00:21;;;;;;;14.02;8.82;;;;;;;;;;5072591;28;20359;-70
2021/11/25 10:02:47;;;;;;;13.55;9.00;;;;;;;;;;5090922;28;20032;-72
2021/11/25 10:05:13;;;;;;;15.50;9.25;;;;;;;;;;5090841;28;20395;-62
2021/11/25 10:07:41;;;;;;;15.25;9.73;;;;;;;;;;5090736;28;20107;-72
2021/11/25 10:10:28;;;;;;;16.15;9.38;;;;;;;;;;5073902;28;20356;-73
2021/11/25 10:13:02;;;;;;;12.23;8.48;;;;;;;;;;5094413;28;20023;-67
2021/11/25 10:15:30;;;;;;;13.73;9.25;;;;;;;;;;5094518;28;20463;-71
2021/11/25 10:17:59;;;;;;;14.68;9.20;;;;;;;;;;5094457;28;20028;-70
2021/11/25 10:20:28;;;;;;;14.43;8.85;;;;;;;;;;5094199;28;20419;-67
2021/11/25 10:23:03;;;;;;;16.27;8.82;;;;;;;;;;5076073;28;20081;-70
2021/11/25 10:25:49;;;;;;;12.23;8.20;;;;;;;;;;5094214;28;20091;-68
2021/11/25 10:28:21;;;;;;;13.63;8.25;;;;;;;;;;5075950;28;20039;-70
2021/11/25 10:30:49;;;;;;;13.85;8.48;;;;;;;;;;5094112;28;20468;-68
2021/11/25 10:33:21;;;;;;;14.20;8.25;;;;;;;;;;5094046;28;20364;-72
2021/11/25 10:36:03;;;;;;;15.30;9.55;;;;;;;;;;5094104;28;20528;-70
2021/11/25 10:38:39;;;;;;;13.63;8.57;;;;;;;;;;5094154;28;20352;-72
2021/11/25 10:41:12;;;;;;;15.45;9.15;;;;;;;;;;5094086;28;20066;-65
2021/11/25 10:43:39;;;;;;;14.70;8.82;;;;;;;;;;5093994;28;20051;-72
2021/11/25 10:46:06;;;;;;;14.27;8.70;;;;;;;;;;5093976;28;20021;-72
2021/11/25 10:48:36;;;;;;;16.10;9.30;;;;;;;;;;5093558;28;20028;-71
2021/11/25 10:51:21;;;;;;;15.73;9.05;;;;;;;;;;5093773;28;20392;-72
2021/11/25 10:54:02;;;;;;;15.98;9.45;;;;;;;;;;5093846;28;20023;-71
2021/11/25 10:56:55;;;;;;;15.55;9.52;;;;;;;;;;5075477;28;20065;-68
2021/11/25 10:59:22;;;;;;;16.27;9.07;;;;;;;;;;5090826;28;20083;-71
2021/11/25 11:01:51;;;;;;;15.05;8.82;;;;;;;;;;5093659;28;20024;-63
2021/11/25 11:04:18;;;;;;;13.55;8.25;;;;;;;;;;5075491;28;20063;-71
2021/11/25 11:06:45;;;;;;;14.63;8.55;;;;;;;;;;5093502;28;20024;-70
2021/11/25 11:09:33;;;;;;;13.27;8.88;;;;;;;;;;5093529;28;20042;-69
2021/11/25 11:12:19;;;;;;;13.05;8.50;;;;;;;;;;5093532;28;20073;-70
2021/11/25 11:14:51;;;;;;;14.18;8.63;;;;;;;;;;5074874;28;20028;-68
2021/11/25 11:17:33;;;;;;;15.75;9.65;;;;;;;;;;5093167;28;20017;-66
2021/11/25 11:20:10;;;;;;;13.55;8.73;;;;;;;;;;5092981;28;20020;-67
2021/11/25 11:22:37;;;;;;;15.73;10.07;;;;;;;;;;5074370;28;20027;-64
2021/11/25 11:25:04;;;;;;;12.63;8.30;;;;;;;;;;5074934;28;20039;-63
2021/11/25 11:27:30;;;;;;;13.52;8.55;;;;;;;;;;5091574;28;20050;-62
2021/11/25 11:29:57;;;;;;;13.50;8.40;;;;;;;;;;5112087;28;20425;-67
2021/11/25 11:32:23;;;;;;;14.20;8.90;;;;;;;;;;5098415;28;20015;-67
2021/11/25 11:34:53;;;;;;;12.10;8.13;;;;;;;;;;5112694;28;20076;-71
2021/11/25 11:37:20;;;;;;;14.23;7.95;;;;;;;;;;5112947;28;20392;-69
2021/11/25 11:39:46;;;;;;;13.95;8.45;;;;;;;;;;5112819;28;20035;-69
2021/11/25 11:42:13;;;;;;;13.20;8.52;;;;;;;;;;5111879;28;20044;-66
2021/11/25 11:44:44;;;;;;;22.50;8.48;;;;;;;;;;5105511;28;20107;-67
2021/11/25 11:47:11;;;;;;;13.43;7.97;;;;;;;;;;5074070;28;20024;-70
2021/11/25 11:49:38;;;;;;;15.80;9.50;;;;;;;;;;5073994;28;20024;-65
2021/11/25 11:52:06;;;;;;;15.13;9.20;;;;;;;;;;5105531;28;20103;-70
2021/11/25 11:54:41;;;;;;;13.75;8.70;;;;;;;;;;5094268;28;20655;-68
2021/11/25 11:57:28;;;;;;;15.13;10.10;;;;;;;;;;5112804;28;20019;-65
2021/11/25 11:59:54;;;;;;;15.45;9.32;;;;;;;;;;5091774;28;20629;-69
2021/11/25 12:02:40;;;;;;;14.13;8.77;;;;;;;;;;5092138;28;20519;-63
2021/11/25 12:05:06;;;;;;;15.68;9.13;;;;;;;;;;5073953;28;20032;-64
2021/11/25 12:07:32;;;;;;;14.40;8.90;;;;;;;;;;5091884;28;20031;-66
2021/11/25 12:09:58;;;;;;;12.07;7.78;;;;;;;;;;5092809;28;20479;-63
2021/11/25 12:12:24;;;;;;;12.35;8.82;;;;;;;;;;5073386;28;20031;-68
2021/11/25 12:14:54;;;;;;;15.23;8.65;;;;;;;;;;5095889;28;20537;-69
2021/11/25 12:17:29;;;;;;;14.10;8.35;;;;;;;;;;5091811;28;20024;-67
2021/11/25 12:19:56;;;;;;;13.05;8.55;;;;;;;;;;5091559;28;20024;-66
2021/11/25 12:22:23;;;;;;;12.93;8.90;;;;;;;;;;5091985;28;20027;-70
2021/11/25 12:24:54;;;;;;;13.43;9.15;;;;;;;;;;5091809;28;20094;-70
2021/11/25 12:27:31;;;;;;;16.58;10.07;;;;;;;;;;5091813;28;20023;-65
2021/11/25 12:30:08;;;;;;;18.42;10.07;;;;;;;;;;5091703;28;20024;-68
2021/11/25 12:32:38;;;;;;;16.77;10.43;;;;;;;;;;5091236;28;20020;-63
2021/11/25 12:35:14;;;;;;;14.27;9.45;;;;;;;;;;5090615;28;20052;-71
2021/11/25 12:37:42;;;;;;;13.95;9.48;;;;;;;;;;5091413;28;20024;-65
2021/11/25 12:40:15;;;;;;;16.92;10.18;;;;;;;;;;5091282;28;20030;-71
2021/11/25 12:42:45;;;;;;;15.88;9.98;;;;;;;;;;5091112;28;20051;-67
2021/11/25 12:45:22;;;;;;;14.90;9.02;;;;;;;;;;5091220;28;20735;-71
2021/11/25 12:47:48;;;;;;;14.15;9.40;;;;;;;;;;5091611;28;20036;-68
2021/11/25 12:50:21;;;;;;;12.20;9.23;;;;;;;;;;5094442;28;20035;-63
2021/11/25 12:52:48;;;;;;;16.27;10.10;;;;;;;;;;5111610;28;20020;-71
2021/11/25 12:55:15;;;;;;;16.23;9.60;;;;;;;;;;5111356;28;20515;-69
2021/11/25 12:57:57;;;;;;;14.82;10.02;;;;;;;;;;5111494;28;20076;-68
2021/11/25 13:00:25;;;;;;;15.50;10.00;;;;;;;;;;5111409;28;20019;-69
2021/11/25 13:03:10;;;;;;;14.82;9.85;;;;;;;;;;5111434;28;20253;-70
2021/11/25 13:05:37;;;;;;;17.15;9.65;;;;;;;;;;5109696;28;20046;-68
2021/11/25 13:08:05;;;;;;;14.68;8.93;;;;;;;;;;5090858;28;20066;-67
2021/11/25 13:10:32;;;;;;;14.25;9.45;;;;;;;;;;5090712;28;20016;-64
2021/11/25 13:13:08;;;;;;;14.75;9.13;;;;;;;;;;5072891;28;20032;-65
2021/11/25 13:15:34;;;;;;;14.90;8.80;;;;;;;;;;5091196;28;20095;-67
2021/11/25 13:18:00;;;;;;;13.98;9.88;;;;;;;;;;5091051;28;20028;-67
2021/11/25 13:20:42;;;;;;;12.52;8.50;;;;;;;;;;5073225;28;20024;-69
2021/11/25 13:23:08;;;;;;;14.23;9.70;;;;;;;;;;5091564;28;20024;-71
2021/11/25 13:25:34;;;;;;;14.63;9.43;;;;;;;;;;5091069;28;20013;-71
2021/11/25 13:28:00;;;;;;;17.85;9.73;;;;;;;;;;5091030;28;20036;-67
2021/11/25 13:30:26;;;;;;;18.50;9.85;;;;;;;;;;5109009;28;20038;-64
2021/11/25 13:32:53;;;;;;;13.98;9.23;;;;;;;;;;5111351;28;20031;-68
2021/11/25 13:35:19;;;;;;;13.23;9.05;;;;;;;;;;5104927;28;20034;-69
2021/11/25 13:37:53;;;;;;;15.68;10.52;;;;;;;;;;5111296;28;20020;-70
2021/11/25 13:40:21;;;;;;;14.43;9.10;;;;;;;;;;5103214;28;20016;-67
2021/11/25 13:42:48;;;;;;;14.05;8.32;;;;;;;;;;5090536;28;20052;-67
2021/11/25 13:45:22;;;;;;;13.50;9.05;;;;;;;;;;5091773;28;20020;-71
2021/11/25 13:47:49;;;;;;;17.98;9.77;;;;;;;;;;5105363;28;20044;-64
2021/11/25 13:50:17;;;;;;;18.05;10.40;;;;;;;;;;5115018;28;20046;-62
2021/11/25 13:52:50;;;;;;;14.40;9.68;;;;;;;;;;5114751;28;20023;-67
2021/11/25 13:55:17;;;;;;;16.00;9.73;;;;;;;;;;5114937;28;20080;-64
2021/11/25 13:57:44;;;;;;;12.82;9.05;;;;;;;;;;5114111;28;20031;-64
2021/11/25 14:00:15;;;;;;;16.15;9.70;;;;;;;;;;5097243;28;20089;-68
2021/11/25 14:02:42;;;;;;;16.98;10.55;;;;;;;;;;5114274;28;20488;-70
2021/11/25 14:05:09;;;;;;;15.65;10.02;;;;;;;;;;5114539;28;20423;-66
2021/11/25 14:07:36;;;;;;;21.10;11.55;;;;;;;;;;5110889;28;20039;-69
2021/11/25 14:10:09;;;;;;;20.58;9.77;;;;;;;;;;5076106;28;20020;-70
2021/11/25 14:12:36;;;;;;;17.70;9.88;;;;;;;;;;5094104;28;20046;-63
2021/11/25 14:15:04;;;;;;;24.20;10.43;;;;;;;;;;5094148;28;20031;-70
2021/11/25 14:17:31;;;;;;;19.65;10.60;;;;;;;;;;5094067;28;20020;-71
2021/11/25 14:19:57;;;;;;;18.30;10.25;;;;;;;;;;5076374;28;20043;-67
2021/11/25 14:22:27;;;;;;;18.27;10.93;;;;;;;;;;5093897;28;20024;-70
2021/11/25 14:25:00;;;;;;;19.00;9.98;;;;;;;;;;5075574;28;20027;-63
2021/11/25 14:30:15;;;;;;;14.15;9.05;;;;;;;;;;5096168;28;20100;-69
2021/11/25 14:32:47;;;;;;;15.45;9.32;;;;;;;;;;5114212;28;20024;-64
2021/11/25 14:36:07;;;;;;;15.88;9.00;;;;;;;;;;5114003;28;20024;-63